createdAt,value
2022-12-23T00:00:45.277Z,9.43
2022-12-23T00:03:12.737Z,10.77
2022-12-23T00:05:40.538Z,9.27
2022-12-23T00:08:08.074Z,8.32
2022-12-23T00:10:39.087Z,8.40
2022-12-23T00:13:24.848Z,9.02
2022-12-23T00:15:51.884Z,10.82
2022-12-23T00:18:18.823Z,9.85
2022-12-23T00:20:45.776Z,9.50
2022-12-23T00:23:13.037Z,8.50
2022-12-23T00:25:43.948Z,8.75
2022-12-23T00:28:16.483Z,10.25
2022-12-23T00:31:03.954Z,9.40
2022-12-23T00:33:39.996Z,11.45
2022-12-23T00:36:29.945Z,9.10
2022-12-23T00:39:17.504Z,10.15
2022-12-23T00:42:03.268Z,10.07
2022-12-23T00:44:30.756Z,9.82
2022-12-23T00:46:57.759Z,8.60
2022-12-23T00:49:43.084Z,10.73
2022-12-23T00:52:12.622Z,10.10
2022-12-23T00:54:41.036Z,10.90
2022-12-23T00:57:08.014Z,10.32
2022-12-23T00:59:35.189Z,10.27
2022-12-23T01:02:21.055Z,9.60
2022-12-23T01:05:06.520Z,12.48
2022-12-23T01:07:33.788Z,13.35
2022-12-23T01:10:00.859Z,14.20
2022-12-23T01:12:28.302Z,12.93
2022-12-23T01:14:55.426Z,12.75
2022-12-23T01:17:22.535Z,13.30
2022-12-23T01:19:49.588Z,12.38
2022-12-23T01:22:16.599Z,12.95
2022-12-23T01:24:43.587Z,13.82
2022-12-23T01:27:10.569Z,14.02
2022-12-23T01:29:37.705Z,12.95
2022-12-23T01:32:04.981Z,13.88
2022-12-23T01:34:36.699Z,12.73
2022-12-23T01:37:05.397Z,13.32
2022-12-23T01:39:32.821Z,11.80
2022-12-23T01:42:18.510Z,11.90
2022-12-23T01:45:11.592Z,12.93
2022-12-23T01:47:50.410Z,12.13
2022-12-23T01:50:50.255Z,11.45
2022-12-23T01:53:22.014Z,12.73
2022-12-23T01:55:51.269Z,13.20
2022-12-23T01:58:30.567Z,14.35
2022-12-23T02:01:17.635Z,12.73
2022-12-23T02:03:46.399Z,12.80
2022-12-23T02:06:44.907Z,13.27
2022-12-23T02:09:17.544Z,15.57
2022-12-23T02:12:22.025Z,14.00
2022-12-23T02:15:25.473Z,11.90
2022-12-23T02:18:11.872Z,13.90
2022-12-23T02:21:26.323Z,14.55
2022-12-23T02:23:53.381Z,13.65
2022-12-23T02:26:33.774Z,13.82
2022-12-23T02:29:15.925Z,14.27
2022-12-23T02:31:56.823Z,15.23
2022-12-23T02:34:51.240Z,19.05
2022-12-23T02:37:24.186Z,18.13
2022-12-23T02:40:13.116Z,17.05
2022-12-23T02:42:59.614Z,18.05
2022-12-23T02:45:55.847Z,17.65
2022-12-23T02:48:27.378Z,16.25
2022-12-23T02:50:56.902Z,16.02
2022-12-23T02:53:37.611Z,15.75
2022-12-23T02:56:08.247Z,14.38
2022-12-23T02:58:42.457Z,15.68
2022-12-23T03:01:12.362Z,15.30
2022-12-23T03:03:41.537Z,17.42
2022-12-23T03:06:19.866Z,18.17
2022-12-23T03:08:47.983Z,20.92
2022-12-23T03:11:16.874Z,19.52
2022-12-23T03:13:59.036Z,18.60
2022-12-23T03:17:00.509Z,19.17
2022-12-23T03:19:47.699Z,19.17
2022-12-23T03:22:38.606Z,17.00
2022-12-23T03:25:23.482Z,15.93
2022-12-23T03:28:09.514Z,17.95
2022-12-23T03:30:39.493Z,17.95
2022-12-23T03:33:17.221Z,18.23
2022-12-23T03:35:50.144Z,17.38
2022-12-23T03:38:19.479Z,21.08
2022-12-23T03:40:55.551Z,19.38
2022-12-23T03:43:29.032Z,19.58
2022-12-23T03:46:03.414Z,16.20
2022-12-23T03:48:37.094Z,18.15
2022-12-23T03:51:19.348Z,19.88
2022-12-23T03:53:54.961Z,18.63
2022-12-23T03:56:48.161Z,18.02
2022-12-23T03:59:21.646Z,20.92
2022-12-23T04:02:07.017Z,18.73
2022-12-23T04:04:40.155Z,17.85
2022-12-23T04:07:15.760Z,18.63
2022-12-23T04:09:43.619Z,18.83
2022-12-23T04:12:10.967Z,19.95
2022-12-23T04:14:45.322Z,23.92
2022-12-23T04:17:12.332Z,19.38
2022-12-23T04:19:39.293Z,18.20
2022-12-23T04:22:06.311Z,17.88
2022-12-23T04:24:33.323Z,18.40
2022-12-23T04:27:00.295Z,19.55
2022-12-23T04:29:27.224Z,19.92
2022-12-23T04:31:54.193Z,19.92
2022-12-23T04:34:21.216Z,16.73
2022-12-23T04:36:48.231Z,18.30
2022-12-23T04:39:15.281Z,17.52
2022-12-23T04:41:42.229Z,18.35
2022-12-23T04:44:09.320Z,19.77
2022-12-23T04:46:36.308Z,18.90
2022-12-23T04:49:03.389Z,19.58
2022-12-23T04:51:30.340Z,17.00
2022-12-23T04:53:57.289Z,19.15
2022-12-23T04:56:24.410Z,17.67
2022-12-23T04:58:51.438Z,18.10
2022-12-23T05:01:18.416Z,18.13
2022-12-23T05:03:45.405Z,21.00
2022-12-23T05:06:12.414Z,17.65
2022-12-23T05:08:39.434Z,18.98
2022-12-23T05:11:06.460Z,21.77
2022-12-23T05:13:33.435Z,21.00
2022-12-23T05:16:00.483Z,20.25
2022-12-23T05:18:27.572Z,21.42
2022-12-23T05:20:54.559Z,22.15
2022-12-23T05:23:21.520Z,23.88
2022-12-23T05:25:53.192Z,21.70
2022-12-23T05:28:22.162Z,21.83
2022-12-23T05:30:49.138Z,20.90
2022-12-23T05:33:16.177Z,20.20
2022-12-23T05:35:43.219Z,21.55
2022-12-23T05:38:10.172Z,20.75
2022-12-23T05:40:37.137Z,19.23
2022-12-23T05:43:04.219Z,18.92
2022-12-23T05:45:31.231Z,22.67
2022-12-23T05:47:58.235Z,19.58
2022-12-23T05:50:25.169Z,18.35
2022-12-23T05:52:52.125Z,19.80
2022-12-23T05:55:19.065Z,19.98
2022-12-23T05:57:46.051Z,20.42
2022-12-23T06:00:14.131Z,18.38
2022-12-23T06:02:41.279Z,20.15
2022-12-23T06:05:08.936Z,20.33
2022-12-23T06:07:36.010Z,19.77
2022-12-23T06:10:03.495Z,21.67
2022-12-23T06:12:30.541Z,15.80
2022-12-23T06:14:57.500Z,18.38
2022-12-23T06:17:24.456Z,17.63
2022-12-23T06:19:51.459Z,19.08
2022-12-23T06:22:21.123Z,16.15
2022-12-23T06:24:48.464Z,17.95
2022-12-23T06:27:15.722Z,16.75
2022-12-23T06:29:42.783Z,17.52
2022-12-23T06:32:09.936Z,18.20
2022-12-23T06:34:36.952Z,16.55
2022-12-23T06:37:03.967Z,17.38
2022-12-23T06:39:30.943Z,19.38
2022-12-23T06:41:57.970Z,20.15
2022-12-23T06:44:24.906Z,17.77
2022-12-23T06:46:51.885Z,17.40
2022-12-23T06:49:18.862Z,16.65
2022-12-23T06:51:45.791Z,18.67
2022-12-23T06:54:13.017Z,20.00
2022-12-23T06:56:40.148Z,19.52
2022-12-23T06:59:07.204Z,20.73
2022-12-23T07:01:34.373Z,20.55
2022-12-23T07:04:02.132Z,20.80
2022-12-23T07:06:29.597Z,18.00
2022-12-23T07:08:56.581Z,19.40
2022-12-23T07:11:23.522Z,19.58
2022-12-23T07:13:50.692Z,18.75
2022-12-23T07:16:17.759Z,17.70
2022-12-23T07:18:44.847Z,19.83
2022-12-23T07:21:20.024Z,17.42
2022-12-23T07:23:51.810Z,20.20
2022-12-23T07:26:18.854Z,18.45
2022-12-23T07:28:48.278Z,20.02
2022-12-23T07:31:16.504Z,17.55
2022-12-23T07:33:43.631Z,21.98
2022-12-23T07:36:11.040Z,16.73
2022-12-23T07:38:37.998Z,21.67
2022-12-23T07:41:05.161Z,19.55
2022-12-23T07:43:32.120Z,18.92
2022-12-23T07:46:00.839Z,20.85
2022-12-23T07:48:28.300Z,21.30
2022-12-23T07:51:01.768Z,22.92
2022-12-23T07:53:28.973Z,19.65
2022-12-23T07:55:57.034Z,20.25
2022-12-23T07:58:25.082Z,20.13
2022-12-23T08:00:59.799Z,23.70
2022-12-23T08:03:26.868Z,21.45
2022-12-23T08:06:09.028Z,19.88
2022-12-23T08:08:36.254Z,17.77
2022-12-23T08:11:05.477Z,19.55
2022-12-23T08:13:34.628Z,24.80
2022-12-23T08:16:03.068Z,21.65
2022-12-23T08:18:31.997Z,24.35
2022-12-23T08:21:04.507Z,23.60
2022-12-23T08:23:32.350Z,25.70
2022-12-23T08:26:04.559Z,19.95
2022-12-23T08:28:32.243Z,25.77
2022-12-23T08:31:05.201Z,22.20
2022-12-23T08:33:32.387Z,30.20
2022-12-23T08:35:59.802Z,27.00
2022-12-23T08:38:26.787Z,23.00
2022-12-23T08:40:53.763Z,27.73
2022-12-23T08:43:20.764Z,25.17
2022-12-23T08:45:47.820Z,28.27
2022-12-23T08:48:15.279Z,27.23
2022-12-23T08:50:44.884Z,23.98
2022-12-23T08:53:13.426Z,25.38
2022-12-23T08:55:43.502Z,22.30
2022-12-23T08:58:11.278Z,23.85
2022-12-23T09:00:39.051Z,21.30
2022-12-23T09:03:06.689Z,22.88
2022-12-23T09:05:34.571Z,22.67
2022-12-23T09:08:02.268Z,23.73
2022-12-23T09:10:29.396Z,27.35
2022-12-23T09:12:58.093Z,24.40
2022-12-23T09:15:25.364Z,22.88
2022-12-23T09:17:52.321Z,24.55
2022-12-23T09:20:19.281Z,25.77
2022-12-23T09:22:46.272Z,26.77
2022-12-23T09:25:14.292Z,30.85
2022-12-23T09:27:41.382Z,31.00
2022-12-23T09:30:10.354Z,30.23
2022-12-23T09:32:37.310Z,24.63
2022-12-23T09:35:04.865Z,30.38
2022-12-23T09:37:31.839Z,28.02
2022-12-23T09:39:58.875Z,27.83
2022-12-23T09:42:31.255Z,28.52
2022-12-23T09:45:25.955Z,24.38
2022-12-23T09:47:55.631Z,27.98
2022-12-23T09:50:28.938Z,25.70
2022-12-23T09:53:13.273Z,26.50
2022-12-23T09:55:49.150Z,25.58
2022-12-23T09:58:38.065Z,26.55
2022-12-23T10:01:14.428Z,37.85
2022-12-23T10:03:44.258Z,29.25
2022-12-23T10:06:20.078Z,34.75
2022-12-23T10:08:54.802Z,29.88
2022-12-23T10:11:26.708Z,24.60
2022-12-23T10:14:00.199Z,26.90
2022-12-23T10:16:35.823Z,25.98
2022-12-23T10:19:08.771Z,24.23
2022-12-23T10:21:54.997Z,27.10
2022-12-23T10:24:24.618Z,28.80
2022-12-23T10:26:53.139Z,23.17
2022-12-23T10:29:23.064Z,25.50
2022-12-23T10:31:58.862Z,26.23
2022-12-23T10:34:56.411Z,24.60
2022-12-23T10:37:33.627Z,26.88
2022-12-23T10:40:22.433Z,26.05
2022-12-23T10:43:26.964Z,27.55
2022-12-23T10:46:11.912Z,24.10
2022-12-23T10:49:00.262Z,24.83
2022-12-23T10:51:49.562Z,21.42
2022-12-23T10:54:37.206Z,25.65
2022-12-23T10:59:35.054Z,22.55
2022-12-23T11:02:27.295Z,24.45
2022-12-23T11:04:54.550Z,25.45
2022-12-23T11:07:44.164Z,22.75
2022-12-23T11:10:22.137Z,22.25
2022-12-23T11:12:51.803Z,24.20
2022-12-23T11:15:39.533Z,25.98
2022-12-23T11:18:12.586Z,26.65
2022-12-23T11:20:42.332Z,27.90
2022-12-23T11:23:28.874Z,25.42
2022-12-23T11:26:07.886Z,24.85
2022-12-23T11:28:47.769Z,23.88
2022-12-23T11:31:17.130Z,22.17
2022-12-23T11:34:11.106Z,28.23
2022-12-23T11:36:38.614Z,25.08
2022-12-23T11:39:14.440Z,23.73
2022-12-23T11:41:50.339Z,24.90
2022-12-23T11:44:32.420Z,24.80
2022-12-23T11:47:17.400Z,22.02
2022-12-23T11:49:53.978Z,24.00
2022-12-23T11:52:23.778Z,21.05
2022-12-23T11:54:57.209Z,23.92
2022-12-23T11:57:47.054Z,22.20
2022-12-23T12:00:24.885Z,26.95
2022-12-23T12:03:03.752Z,26.40
2022-12-23T12:05:41.394Z,23.83
2022-12-23T12:08:15.379Z,23.73
2022-12-23T12:10:43.315Z,22.55
2022-12-23T12:13:28.085Z,21.55
2022-12-23T12:16:01.125Z,25.73
2022-12-23T12:18:29.246Z,18.85
2022-12-23T12:21:01.753Z,20.27
2022-12-23T12:23:48.220Z,21.42
2022-12-23T12:26:25.959Z,18.00
2022-12-23T12:29:31.300Z,20.67
2022-12-23T12:32:00.227Z,18.67
2022-12-23T12:34:45.757Z,18.15
2022-12-23T12:37:12.661Z,18.98
2022-12-23T12:39:51.726Z,19.40
2022-12-23T12:42:29.228Z,18.55
2022-12-23T12:45:03.712Z,17.10
2022-12-23T12:48:00.196Z,20.30
2022-12-23T12:50:34.897Z,17.73
2022-12-23T12:53:13.668Z,15.98
2022-12-23T12:55:46.492Z,18.05
2022-12-23T12:58:21.907Z,19.58
2022-12-23T13:01:14.976Z,24.92
2022-12-23T13:04:14.489Z,18.70
2022-12-23T13:07:05.701Z,19.40
2022-12-23T13:09:53.058Z,19.10
2022-12-23T13:12:20.036Z,18.73
2022-12-23T13:15:08.994Z,18.67
2022-12-23T13:17:51.042Z,21.38
2022-12-23T13:21:04.339Z,17.75
2022-12-23T13:24:04.056Z,16.85
2022-12-23T13:26:51.659Z,17.77
2022-12-23T13:29:58.299Z,18.95
2022-12-23T13:32:54.670Z,15.50
2022-12-23T13:35:43.583Z,18.70
2022-12-23T13:39:07.847Z,17.90
2022-12-23T13:41:40.915Z,19.58
2022-12-23T13:44:10.812Z,16.23
2022-12-23T13:46:55.080Z,15.93
2022-12-23T13:49:33.910Z,14.77
2022-12-23T13:52:08.500Z,15.32
2022-12-23T13:55:03.157Z,15.73
2022-12-23T13:57:59.908Z,18.27
2022-12-23T14:00:30.995Z,16.42
2022-12-23T14:02:57.945Z,17.02
2022-12-23T14:05:46.929Z,14.82
2022-12-23T14:08:19.910Z,15.40
2022-12-23T14:11:12.781Z,15.30
2022-12-23T14:13:52.184Z,15.23
2022-12-23T14:16:21.893Z,15.88
2022-12-23T14:19:16.498Z,15.90
2022-12-23T14:22:08.048Z,14.13
2022-12-23T14:24:45.502Z,13.77
2022-12-23T14:27:24.594Z,13.75
2022-12-23T14:32:50.733Z,14.55
2022-12-23T14:35:38.599Z,14.60
2022-12-23T14:38:15.252Z,13.90
2022-12-23T14:40:42.199Z,12.63
2022-12-23T14:43:32.832Z,17.23
2022-12-23T14:46:05.984Z,12.70
2022-12-23T14:48:36.201Z,12.65
2022-12-23T14:51:10.226Z,10.35
2022-12-23T14:53:53.873Z,11.60
2022-12-23T14:56:28.798Z,10.88
2022-12-23T14:59:05.237Z,10.73
2022-12-23T15:01:42.676Z,9.70
2022-12-23T15:04:24.302Z,10.57
2022-12-23T15:06:55.732Z,9.85
2022-12-23T15:09:28.786Z,10.00
2022-12-23T15:11:59.892Z,8.40
2022-12-23T15:14:57.393Z,10.30
2022-12-23T15:17:27.954Z,8.82
2022-12-23T15:20:22.406Z,8.68
2022-12-23T15:22:49.872Z,8.80
2022-12-23T15:25:26.567Z,10.68
2022-12-23T15:28:01.496Z,7.65
2022-12-23T15:30:46.303Z,7.45
2022-12-23T15:33:51.817Z,8.15
2022-12-23T15:36:06.653Z,11.00
2022-12-23T15:38:37.683Z,9.40
2022-12-23T15:41:15.544Z,8.15
2022-12-23T15:43:43.518Z,8.23
2022-12-23T15:46:21.930Z,9.95
2022-12-23T15:48:52.694Z,9.35
2022-12-23T15:54:34.292Z,6.93
2022-12-23T15:57:03.360Z,7.47
2022-12-23T15:59:37.813Z,8.23
2022-12-23T16:02:40.457Z,7.13
2022-12-23T16:05:00.799Z,8.18
2022-12-23T16:07:37.054Z,8.32
2022-12-23T16:10:24.447Z,8.68
2022-12-23T16:12:52.137Z,8.32
2022-12-23T16:15:33.377Z,9.70
2022-12-23T16:18:19.237Z,8.60
2022-12-23T16:20:49.971Z,10.07
2022-12-23T16:23:17.933Z,9.88
2022-12-23T16:25:50.399Z,9.30
2022-12-23T16:28:30.029Z,9.90
2022-12-23T16:30:58.588Z,11.82
2022-12-23T16:33:51.496Z,9.38
2022-12-23T16:36:27.762Z,11.32
2022-12-23T16:39:06.743Z,10.20
2022-12-23T16:41:34.978Z,12.05
2022-12-23T16:44:02.847Z,11.35
2022-12-23T16:46:37.033Z,11.80
2022-12-23T16:49:08.493Z,11.88
2022-12-23T16:51:38.544Z,10.40
2022-12-23T16:54:06.277Z,10.85
2022-12-23T16:56:37.970Z,10.13
2022-12-23T16:59:05.388Z,11.40
2022-12-23T17:01:35.183Z,12.05
2022-12-23T17:04:02.719Z,12.52
2022-12-23T17:06:29.797Z,13.18
2022-12-23T17:08:57.154Z,11.15
2022-12-23T17:11:38.652Z,12.52
2022-12-23T17:14:13.530Z,11.63
2022-12-23T17:16:42.709Z,12.00
2022-12-23T17:19:09.852Z,12.43
2022-12-23T17:21:39.184Z,11.40
2022-12-23T17:24:25.509Z,13.40
2022-12-23T17:26:53.952Z,12.85
2022-12-23T17:29:20.980Z,12.32
2022-12-23T17:31:49.058Z,12.63
2022-12-23T17:34:20.818Z,12.88
2022-12-23T17:36:50.763Z,13.55
2022-12-23T17:39:19.707Z,14.40
2022-12-23T17:41:46.869Z,12.40
2022-12-23T17:44:15.425Z,14.57
2022-12-23T17:46:43.187Z,13.27
2022-12-23T17:49:10.218Z,14.30
2022-12-23T17:51:39.655Z,13.45
2022-12-23T17:54:06.867Z,12.23
2022-12-23T17:56:33.890Z,14.80
2022-12-23T17:59:00.911Z,13.20
2022-12-23T18:01:30.470Z,15.68
2022-12-23T18:03:59.046Z,14.02
2022-12-23T18:06:28.128Z,14.80
2022-12-23T18:08:57.201Z,15.13
2022-12-23T18:11:36.507Z,14.25
2022-12-23T18:14:04.229Z,13.35
2022-12-23T18:16:31.452Z,16.45
2022-12-23T18:18:58.611Z,13.70
2022-12-23T18:21:28.807Z,12.77
2022-12-23T18:23:58.847Z,14.85
2022-12-23T18:26:26.312Z,13.10
2022-12-23T18:28:54.441Z,14.27
2022-12-23T18:31:27.495Z,13.70
2022-12-23T18:33:54.953Z,12.65
2022-12-23T18:36:28.453Z,12.10
2022-12-23T18:38:57.253Z,13.63
2022-12-23T18:41:26.101Z,13.40
2022-12-23T18:43:53.788Z,12.57
2022-12-23T18:46:21.440Z,10.35
2022-12-23T18:48:48.722Z,11.90
2022-12-23T18:51:17.593Z,13.68
2022-12-23T18:53:46.564Z,11.07
2022-12-23T18:56:15.222Z,10.38
2022-12-23T18:58:42.619Z,11.35
2022-12-23T19:01:14.626Z,11.13
2022-12-23T19:03:42.683Z,12.88
2022-12-23T19:06:13.410Z,12.02
2022-12-23T19:08:41.845Z,12.05
2022-12-23T19:11:17.808Z,10.35
2022-12-23T19:13:45.604Z,10.77
2022-12-23T19:16:18.387Z,10.82
2022-12-23T19:18:46.705Z,11.50
2022-12-23T19:21:14.401Z,10.10
2022-12-23T19:23:42.049Z,10.18
2022-12-23T19:26:14.271Z,10.23
2022-12-23T19:28:42.078Z,17.23
2022-12-23T19:31:10.920Z,10.77
2022-12-23T19:33:42.827Z,11.15
2022-12-23T19:36:22.995Z,11.98
2022-12-23T19:38:50.420Z,10.30
2022-12-23T19:41:18.666Z,11.60
2022-12-23T19:43:47.119Z,11.07
2022-12-23T19:46:15.446Z,11.00
2022-12-23T19:48:42.836Z,11.13
2022-12-23T19:51:14.387Z,10.20
2022-12-23T19:53:42.180Z,11.57
2022-12-23T19:56:14.483Z,11.93
2022-12-23T19:58:44.180Z,10.43
2022-12-23T20:01:17.264Z,11.23
2022-12-23T20:03:46.181Z,10.07
2022-12-23T20:06:22.027Z,11.15
2022-12-23T20:08:52.655Z,10.98
2022-12-23T20:11:26.233Z,11.98
2022-12-23T20:13:54.703Z,11.00
2022-12-23T20:16:22.763Z,11.57
2022-12-23T20:18:49.926Z,13.07
2022-12-23T20:21:17.202Z,13.05
2022-12-23T20:23:44.188Z,11.30
2022-12-23T20:26:13.116Z,12.13
2022-12-23T20:28:40.627Z,11.43
2022-12-23T20:31:26.953Z,12.02
2022-12-23T20:33:54.734Z,11.95
2022-12-23T20:36:27.851Z,11.38
2022-12-23T20:38:56.250Z,10.68
2022-12-23T20:41:26.475Z,11.60
2022-12-23T20:44:31.599Z,12.50
2022-12-23T20:46:41.157Z,11.57
2022-12-23T20:49:08.220Z,10.88
2022-12-23T20:51:35.160Z,14.63
2022-12-23T20:54:02.176Z,12.50
2022-12-23T20:56:30.512Z,12.45
2022-12-23T20:58:59.391Z,12.23
2022-12-23T21:01:28.392Z,11.23
2022-12-23T21:03:56.945Z,11.95
2022-12-23T21:06:24.747Z,12.07
2022-12-23T21:08:52.514Z,10.60
2022-12-23T21:11:19.527Z,11.20
2022-12-23T21:13:50.597Z,10.82
2022-12-23T21:16:18.675Z,10.73
2022-12-23T21:18:53.634Z,9.57
2022-12-23T21:21:23.738Z,10.15
2022-12-23T21:23:50.861Z,10.40
2022-12-23T21:26:20.523Z,10.85
2022-12-23T21:28:48.859Z,10.30
2022-12-23T21:31:19.068Z,9.82
2022-12-23T21:33:47.697Z,9.77
2022-12-23T21:36:20.222Z,10.45
2022-12-23T21:38:49.288Z,9.95
2022-12-23T21:41:19.919Z,20.05
2022-12-23T21:43:47.571Z,13.23
2022-12-23T21:46:17.235Z,11.38
2022-12-23T21:48:44.975Z,11.90
2022-12-23T21:51:16.767Z,11.68
2022-12-23T21:53:45.478Z,11.13
2022-12-23T21:56:16.224Z,11.25
2022-12-23T21:58:43.512Z,9.98
2022-12-23T22:01:13.652Z,9.70
2022-12-23T22:03:41.550Z,11.55
2022-12-23T22:06:14.184Z,11.20
2022-12-23T22:08:42.071Z,9.75
2022-12-23T22:11:17.227Z,10.88
2022-12-23T22:13:45.090Z,10.15
2022-12-23T22:16:14.677Z,9.48
2022-12-23T22:18:42.742Z,9.75
2022-12-23T22:21:21.596Z,9.68
2022-12-23T22:23:50.030Z,9.25
2022-12-23T22:26:25.279Z,8.98
2022-12-23T22:28:55.041Z,11.50
2022-12-23T22:31:27.313Z,9.98
2022-12-23T22:33:54.516Z,9.95
2022-12-23T22:36:21.677Z,10.48
2022-12-23T22:38:57.698Z,9.50
2022-12-23T22:41:28.077Z,9.38
2022-12-23T22:43:56.113Z,8.55
2022-12-23T22:46:24.654Z,8.82
2022-12-23T22:48:52.774Z,8.00
2022-12-23T22:51:23.082Z,8.93
2022-12-23T22:53:50.918Z,8.93
2022-12-23T22:56:19.548Z,10.07
2022-12-23T22:58:47.474Z,8.80
2022-12-23T23:01:23.903Z,9.73
2022-12-23T23:03:57.334Z,9.38
2022-12-23T23:06:26.654Z,9.18
2022-12-23T23:08:54.959Z,9.40
2022-12-23T23:11:22.814Z,9.25
2022-12-23T23:13:49.756Z,9.68
2022-12-23T23:16:16.750Z,9.13
2022-12-23T23:18:44.072Z,9.75
2022-12-23T23:21:13.293Z,8.43
2022-12-23T23:23:40.389Z,7.78
2022-12-23T23:26:10.309Z,8.27
2022-12-23T23:28:39.461Z,7.45
2022-12-23T23:31:40.621Z,8.85
2022-12-23T23:33:54.281Z,9.25
2022-12-23T23:36:21.509Z,9.93
2022-12-23T23:38:48.530Z,8.52
2022-12-23T23:41:20.616Z,9.20
2022-12-23T23:43:50.079Z,9.68
2022-12-23T23:46:17.246Z,9.18
2022-12-23T23:48:44.303Z,10.40
2022-12-23T23:51:12.653Z,9.77
2022-12-23T23:53:40.495Z,10.40
2022-12-23T23:56:08.544Z,9.25
2022-12-23T23:58:36.886Z,8.73
